Diberville, Mississippi
Current Conditions -  °F | °C
As of 11:23 PM on Saturday 20 Dec 2014 (Local Time) from KBIX Reporting Station
Overcast Overcast  
Wind Chill: 52°   Ceiling: 2400
Heat Index: 52°   Visibility: 10mi
Dew Point: 48°   Wind: 8mph
Humidity: 88%   Direction: 50°NE
Pressure: 30.15"   Gusts: NA
Location:  30.44°N, 88.9°W
Report Text: KBIX 210523Z AUTO 05007KT 10SM SCT011 OVC024 11/09 A3015 RMK AO2 CIG 011V024
Loading
Personal Weather Stations






























Interactive Weather Map New forecast layout! Learn more

10-Day Weather Forecast

Advertisements
Track Severe Weather on mobile